sensor_id;sensor_type;location;lat;lon;timestamp;pressure;altitude;pressure_sealevel;temperature;humidity
70103;BME280;57470;50.034;15.256;2023-05-31T00:01:37;100032.00;;;11.72;72.26
70103;BME280;57470;50.034;15.256;2023-05-31T00:04:02;100033.72;;;11.73;72.25
70103;BME280;57470;50.034;15.256;2023-05-31T00:06:28;100037.53;;;11.83;72.01
70103;BME280;57470;50.034;15.256;2023-05-31T00:08:54;100031.50;;;11.53;72.96
70103;BME280;57470;50.034;15.256;2023-05-31T00:11:19;100035.84;;;11.68;72.24
70103;BME280;57470;50.034;15.256;2023-05-31T00:13:45;100032.25;;;11.41;73.95
70103;BME280;57470;50.034;15.256;2023-05-31T00:16:11;100028.25;;;11.48;73.34
70103;BME280;57470;50.034;15.256;2023-05-31T00:18:36;100040.06;;;11.44;74.09
70103;BME280;57470;50.034;15.256;2023-05-31T00:21:02;100027.22;;;11.50;73.38
70103;BME280;57470;50.034;15.256;2023-05-31T00:23:28;100030.81;;;11.49;73.72
70103;BME280;57470;50.034;15.256;2023-05-31T00:25:53;100029.47;;;11.56;73.55
70103;BME280;57470;50.034;15.256;2023-05-31T00:28:19;100026.06;;;11.40;74.27
70103;BME280;57470;50.034;15.256;2023-05-31T00:30:44;100029.22;;;11.33;75.58
70103;BME280;57470;50.034;15.256;2023-05-31T00:33:11;100031.41;;;11.40;74.71
70103;BME280;57470;50.034;15.256;2023-05-31T00:35:36;100036.25;;;11.48;74.10
70103;BME280;57470;50.034;15.256;2023-05-31T00:38:04;100027.69;;;11.28;74.97
70103;BME280;57470;50.034;15.256;2023-05-31T00:40:30;100029.50;;;11.28;74.10
70103;BME280;57470;50.034;15.256;2023-05-31T00:42:56;100029.50;;;11.14;75.35
70103;BME280;57470;50.034;15.256;2023-05-31T00:45:22;100038.19;;;11.17;75.35
70103;BME280;57470;50.034;15.256;2023-05-31T00:47:48;100040.84;;;11.17;75.21
70103;BME280;57470;50.034;15.256;2023-05-31T00:50:14;100046.91;;;11.19;74.69
70103;BME280;57470;50.034;15.256;2023-05-31T00:52:42;100037.97;;;11.20;75.53
70103;BME280;57470;50.034;15.256;2023-05-31T00:55:08;100038.06;;;11.19;76.08
70103;BME280;57470;50.034;15.256;2023-05-31T00:57:34;100044.84;;;11.24;75.69
70103;BME280;57470;50.034;15.256;2023-05-31T00:59:59;100042.16;;;11.24;76.20
70103;BME280;57470;50.034;15.256;2023-05-31T01:02:25;100038.81;;;11.21;76.18
70103;BME280;57470;50.034;15.256;2023-05-31T01:04:51;100040.91;;;11.02;77.00
70103;BME280;57470;50.034;15.256;2023-05-31T01:07:16;100040.06;;;11.15;75.89
70103;BME280;57470;50.034;15.256;2023-05-31T01:09:42;100035.50;;;11.03;76.54
70103;BME280;57470;50.034;15.256;2023-05-31T01:20:04;100041.09;;;11.13;76.70
70103;BME280;57470;50.034;15.256;2023-05-31T01:27:59;100030.34;;;10.86;77.13
70103;BME280;57470;50.034;15.256;2023-05-31T01:30:27;100033.94;;;10.85;77.24
70103;BME280;57470;50.034;15.256;2023-05-31T01:32:56;100030.88;;;10.33;80.14
70103;BME280;57470;50.034;15.256;2023-05-31T01:35:22;100029.53;;;10.26;81.41
70103;BME280;57470;50.034;15.256;2023-05-31T01:37:48;100028.47;;;10.44;79.89
70103;BME280;57470;50.034;15.256;2023-05-31T01:40:15;100032.56;;;10.49;79.08
70103;BME280;57470;50.034;15.256;2023-05-31T01:42:42;100026.47;;;10.18;80.01
70103;BME280;57470;50.034;15.256;2023-05-31T01:45:10;100033.16;;;10.25;79.89
70103;BME280;57470;50.034;15.256;2023-05-31T01:47:38;100032.28;;;10.08;80.63
70103;BME280;57470;50.034;15.256;2023-05-31T01:50:07;100035.59;;;10.12;81.06
70103;BME280;57470;50.034;15.256;2023-05-31T01:52:34;100030.56;;;10.23;80.30
70103;BME280;57470;50.034;15.256;2023-05-31T01:55:01;100034.91;;;10.40;79.64
70103;BME280;57470;50.034;15.256;2023-05-31T01:57:27;100035.75;;;10.40;79.64
70103;BME280;57470;50.034;15.256;2023-05-31T01:59:56;100034.25;;;10.05;81.09
70103;BME280;57470;50.034;15.256;2023-05-31T02:02:22;100035.97;;;10.22;79.51
70103;BME280;57470;50.034;15.256;2023-05-31T02:04:48;100044.03;;;10.04;79.80
70103;BME280;57470;50.034;15.256;2023-05-31T02:07:13;100046.75;;;10.03;79.72
70103;BME280;57470;50.034;15.256;2023-05-31T02:09:39;100051.31;;;10.16;79.11
70103;BME280;57470;50.034;15.256;2023-05-31T02:12:06;100042.91;;;10.24;78.51
70103;BME280;57470;50.034;15.256;2023-05-31T02:14:33;100043.59;;;10.12;79.08
70103;BME280;57470;50.034;15.256;2023-05-31T02:17:00;100043.78;;;10.09;78.90
70103;BME280;57470;50.034;15.256;2023-05-31T02:19:27;100047.81;;;10.00;79.21
70103;BME280;57470;50.034;15.256;2023-05-31T02:21:54;100056.22;;;10.08;78.96
70103;BME280;57470;50.034;15.256;2023-05-31T02:24:21;100055.34;;;10.08;79.23
70103;BME280;57470;50.034;15.256;2023-05-31T02:26:49;100062.97;;;10.14;80.17
70103;BME280;57470;50.034;15.256;2023-05-31T02:29:16;100057.00;;;10.10;80.67
70103;BME280;57470;50.034;15.256;2023-05-31T02:31:43;100062.06;;;9.99;80.94
70103;BME280;57470;50.034;15.256;2023-05-31T02:34:10;100053.47;;;10.10;79.76
70103;BME280;57470;50.034;15.256;2023-05-31T02:36:36;100059.56;;;9.96;80.02
70103;BME280;57470;50.034;15.256;2023-05-31T02:39:03;100055.78;;;10.00;79.69
70103;BME280;57470;50.034;15.256;2023-05-31T02:41:31;100053.81;;;9.72;80.72
70103;BME280;57470;50.034;15.256;2023-05-31T02:43:58;100058.44;;;9.69;80.04
70103;BME280;57470;50.034;15.256;2023-05-31T02:46:26;100055.03;;;9.83;79.69
70103;BME280;57470;50.034;15.256;2023-05-31T02:48:53;100056.47;;;9.88;79.68
70103;BME280;57470;50.034;15.256;2023-05-31T02:51:20;100054.94;;;9.53;80.51
70103;BME280;57470;50.034;15.256;2023-05-31T02:53:46;100058.69;;;9.49;81.11
70103;BME280;57470;50.034;15.256;2023-05-31T02:56:13;100061.44;;;9.47;81.42
70103;BME280;57470;50.034;15.256;2023-05-31T02:58:40;100062.81;;;9.38;81.96
70103;BME280;57470;50.034;15.256;2023-05-31T03:01:07;100066.63;;;9.49;82.17
70103;BME280;57470;50.034;15.256;2023-05-31T03:03:34;100066.91;;;9.44;82.10
70103;BME280;57470;50.034;15.256;2023-05-31T03:06:02;100068.47;;;9.48;81.31
70103;BME280;57470;50.034;15.256;2023-05-31T03:08:30;100072.91;;;9.48;81.43
70103;BME280;57470;50.034;15.256;2023-05-31T03:10:57;100069.22;;;9.50;81.58
70103;BME280;57470;50.034;15.256;2023-05-31T03:13:23;100066.41;;;9.53;80.96
70103;BME280;57470;50.034;15.256;2023-05-31T03:15:48;100065.63;;;9.51;80.84
70103;BME280;57470;50.034;15.256;2023-05-31T03:18:14;100070.69;;;9.56;80.87
70103;BME280;57470;50.034;15.256;2023-05-31T03:20:40;100065.19;;;9.43;81.78
70103;BME280;57470;50.034;15.256;2023-05-31T03:23:05;100069.06;;;9.53;81.51
70103;BME280;57470;50.034;15.256;2023-05-31T03:25:32;100073.59;;;9.51;81.80
70103;BME280;57470;50.034;15.256;2023-05-31T03:27:58;100076.31;;;9.50;82.15
70103;BME280;57470;50.034;15.256;2023-05-31T03:30:23;100074.66;;;9.64;81.57
70103;BME280;57470;50.034;15.256;2023-05-31T03:32:49;100077.47;;;9.61;81.36
70103;BME280;57470;50.034;15.256;2023-05-31T03:35:14;100074.81;;;9.61;81.78
70103;BME280;57470;50.034;15.256;2023-05-31T03:37:40;100081.91;;;9.61;81.79
70103;BME280;57470;50.034;15.256;2023-05-31T03:40:06;100082.47;;;9.83;81.15
70103;BME280;57470;50.034;15.256;2023-05-31T03:42:31;100077.50;;;9.93;81.35
70103;BME280;57470;50.034;15.256;2023-05-31T03:44:57;100083.44;;;10.12;80.66
70103;BME280;57470;50.034;15.256;2023-05-31T03:47:22;100092.91;;;10.33;80.47
70103;BME280;57470;50.034;15.256;2023-05-31T03:49:48;100095.13;;;10.71;79.32
70103;BME280;57470;50.034;15.256;2023-05-31T03:52:13;100094.22;;;10.56;79.62
70103;BME280;57470;50.034;15.256;2023-05-31T03:54:39;100097.81;;;10.85;80.02
70103;BME280;57470;50.034;15.256;2023-05-31T03:57:05;100097.91;;;10.83;79.31
70103;BME280;57470;50.034;15.256;2023-05-31T03:59:31;100096.94;;;11.00;79.25
70103;BME280;57470;50.034;15.256;2023-05-31T04:01:56;100098.84;;;11.26;79.15
70103;BME280;57470;50.034;15.256;2023-05-31T04:04:22;100099.81;;;11.25;78.51
70103;BME280;57470;50.034;15.256;2023-05-31T04:06:47;100094.09;;;11.60;77.71
70103;BME280;57470;50.034;15.256;2023-05-31T04:09:12;100097.81;;;11.72;77.25
70103;BME280;57470;50.034;15.256;2023-05-31T04:11:38;100087.22;;;11.84;77.16
70103;BME280;57470;50.034;15.256;2023-05-31T04:14:03;100090.47;;;11.89;76.76
70103;BME280;57470;50.034;15.256;2023-05-31T04:16:29;100095.09;;;12.00;76.79
70103;BME280;57470;50.034;15.256;2023-05-31T04:18:54;100102.75;;;12.46;75.62
70103;BME280;57470;50.034;15.256;2023-05-31T04:21:20;100089.41;;;12.98;75.39
70103;BME280;57470;50.034;15.256;2023-05-31T04:23:46;100085.31;;;13.19;73.67
70103;BME280;57470;50.034;15.256;2023-05-31T04:26:11;100085.31;;;13.44;73.27
70103;BME280;57470;50.034;15.256;2023-05-31T04:28:42;100082.94;;;13.65;72.69
70103;BME280;57470;50.034;15.256;2023-05-31T04:31:08;100084.03;;;13.99;72.04
70103;BME280;57470;50.034;15.256;2023-05-31T04:33:33;100082.56;;;13.95;71.96
70103;BME280;57470;50.034;15.256;2023-05-31T04:36:01;100082.31;;;13.98;71.62
70103;BME280;57470;50.034;15.256;2023-05-31T04:38:28;100085.41;;;14.28;71.30
70103;BME280;57470;50.034;15.256;2023-05-31T04:40:56;100080.81;;;14.54;70.63
70103;BME280;57470;50.034;15.256;2023-05-31T04:43:25;100082.81;;;14.63;69.68
70103;BME280;57470;50.034;15.256;2023-05-31T04:45:53;100089.94;;;14.76;69.30
70103;BME280;57470;50.034;15.256;2023-05-31T04:48:19;100079.66;;;14.70;69.62
70103;BME280;57470;50.034;15.256;2023-05-31T04:50:45;100089.34;;;14.94;68.64
70103;BME280;57470;50.034;15.256;2023-05-31T04:53:11;100094.66;;;15.18;66.92
70103;BME280;57470;50.034;15.256;2023-05-31T04:55:37;100087.66;;;15.62;65.18
70103;BME280;57470;50.034;15.256;2023-05-31T04:58:03;100084.34;;;15.36;65.91
70103;BME280;57470;50.034;15.256;2023-05-31T05:00:28;100089.44;;;15.28;66.67
70103;BME280;57470;50.034;15.256;2023-05-31T05:02:54;100084.13;;;15.61;65.59
70103;BME280;57470;50.034;15.256;2023-05-31T05:05:20;100084.63;;;15.55;66.05
70103;BME280;57470;50.034;15.256;2023-05-31T05:07:45;100089.34;;;15.96;65.16
70103;BME280;57470;50.034;15.256;2023-05-31T05:10:10;100084.47;;;16.01;64.60
70103;BME280;57470;50.034;15.256;2023-05-31T05:12:36;100085.28;;;16.13;63.96
70103;BME280;57470;50.034;15.256;2023-05-31T05:15:01;100086.78;;;15.84;64.41
70103;BME280;57470;50.034;15.256;2023-05-31T05:17:27;100091.22;;;15.73;64.72
70103;BME280;57470;50.034;15.256;2023-05-31T05:19:52;100086.31;;;16.01;64.62
70103;BME280;57470;50.034;15.256;2023-05-31T05:22:18;100084.22;;;15.93;63.97
70103;BME280;57470;50.034;15.256;2023-05-31T05:24:44;100088.47;;;16.50;63.51
70103;BME280;57470;50.034;15.256;2023-05-31T05:27:09;100077.06;;;16.69;63.25
70103;BME280;57470;50.034;15.256;2023-05-31T05:29:34;100074.88;;;17.15;61.82
70103;BME280;57470;50.034;15.256;2023-05-31T05:32:00;100076.78;;;17.04;62.90
70103;BME280;57470;50.034;15.256;2023-05-31T05:34:25;100073.88;;;16.75;62.98
70103;BME280;57470;50.034;15.256;2023-05-31T05:36:51;100076.69;;;17.15;62.49
70103;BME280;57470;50.034;15.256;2023-05-31T05:39:18;100080.19;;;17.57;61.45
70103;BME280;57470;50.034;15.256;2023-05-31T05:41:43;100080.56;;;17.73;61.20
70103;BME280;57470;50.034;15.256;2023-05-31T05:44:08;100083.13;;;17.23;62.31
70103;BME280;57470;50.034;15.256;2023-05-31T05:46:34;100086.91;;;17.42;61.92
70103;BME280;57470;50.034;15.256;2023-05-31T05:48:59;100081.88;;;17.79;60.66
70103;BME280;57470;50.034;15.256;2023-05-31T05:51:24;100076.03;;;17.43;62.66
70103;BME280;57470;50.034;15.256;2023-05-31T05:53:50;100072.91;;;17.17;62.00
70103;BME280;57470;50.034;15.256;2023-05-31T05:56:15;100083.75;;;17.37;62.08
70103;BME280;57470;50.034;15.256;2023-05-31T05:58:47;100077.09;;;17.61;61.36
70103;BME280;57470;50.034;15.256;2023-05-31T06:01:15;100079.63;;;17.53;61.44
70103;BME280;57470;50.034;15.256;2023-05-31T06:03:49;100075.53;;;16.87;62.19
70103;BME280;57470;50.034;15.256;2023-05-31T06:06:14;100075.13;;;17.12;61.62
70103;BME280;57470;50.034;15.256;2023-05-31T06:08:42;100077.97;;;17.62;61.20
70103;BME280;57470;50.034;15.256;2023-05-31T06:11:07;100083.22;;;17.43;61.26
70103;BME280;57470;50.034;15.256;2023-05-31T06:13:33;100089.34;;;17.54;59.28
70103;BME280;57470;50.034;15.256;2023-05-31T06:15:58;100083.75;;;17.37;58.13
70103;BME280;57470;50.034;15.256;2023-05-31T06:18:23;100086.09;;;17.51;57.09
70103;BME280;57470;50.034;15.256;2023-05-31T06:20:49;100086.28;;;17.80;57.34
70103;BME280;57470;50.034;15.256;2023-05-31T06:23:14;100083.09;;;18.15;57.08
70103;BME280;57470;50.034;15.256;2023-05-31T06:25:40;100092.91;;;17.55;58.40
70103;BME280;57470;50.034;15.256;2023-05-31T06:28:06;100084.94;;;17.74;58.72
70103;BME280;57470;50.034;15.256;2023-05-31T06:30:31;100087.28;;;17.88;60.42
70103;BME280;57470;50.034;15.256;2023-05-31T06:32:57;100083.34;;;18.02;60.20
70103;BME280;57470;50.034;15.256;2023-05-31T06:35:22;100097.28;;;18.26;60.56
70103;BME280;57470;50.034;15.256;2023-05-31T06:37:48;100086.66;;;18.15;60.04
70103;BME280;57470;50.034;15.256;2023-05-31T06:40:13;100089.78;;;18.20;60.06
70103;BME280;57470;50.034;15.256;2023-05-31T06:42:39;100084.97;;;18.43;60.90
70103;BME280;57470;50.034;15.256;2023-05-31T06:45:05;100084.63;;;18.08;59.74
70103;BME280;57470;50.034;15.256;2023-05-31T06:47:30;100079.91;;;18.50;60.20
70103;BME280;57470;50.034;15.256;2023-05-31T06:49:56;100084.75;;;18.85;59.00
70103;BME280;57470;50.034;15.256;2023-05-31T06:52:21;100084.88;;;18.83;59.20
70103;BME280;57470;50.034;15.256;2023-05-31T06:54:49;100089.56;;;18.91;58.57
70103;BME280;57470;50.034;15.256;2023-05-31T06:57:14;100089.88;;;18.88;57.81
70103;BME280;57470;50.034;15.256;2023-05-31T06:59:40;100086.72;;;18.92;57.41
70103;BME280;57470;50.034;15.256;2023-05-31T07:02:06;100081.03;;;19.15;57.37
70103;BME280;57470;50.034;15.256;2023-05-31T07:04:32;100077.09;;;19.46;56.39
70103;BME280;57470;50.034;15.256;2023-05-31T07:06:57;100073.28;;;19.58;57.33
70103;BME280;57470;50.034;15.256;2023-05-31T07:09:22;100072.91;;;19.71;57.35
70103;BME280;57470;50.034;15.256;2023-05-31T07:11:48;100077.22;;;19.64;57.81
70103;BME280;57470;50.034;15.256;2023-05-31T07:14:13;100076.63;;;19.70;56.73
70103;BME280;57470;50.034;15.256;2023-05-31T07:16:39;100076.91;;;19.76;56.36
70103;BME280;57470;50.034;15.256;2023-05-31T07:19:04;100075.66;;;19.61;56.96
70103;BME280;57470;50.034;15.256;2023-05-31T07:21:30;100063.78;;;19.81;56.75
70103;BME280;57470;50.034;15.256;2023-05-31T07:23:56;100069.00;;;19.93;56.85
70103;BME280;57470;50.034;15.256;2023-05-31T07:26:22;100073.41;;;19.94;55.76
70103;BME280;57470;50.034;15.256;2023-05-31T07:28:47;100065.50;;;19.82;54.51
70103;BME280;57470;50.034;15.256;2023-05-31T07:31:13;100072.19;;;20.23;54.79
70103;BME280;57470;50.034;15.256;2023-05-31T07:33:41;100060.94;;;20.38;55.81
70103;BME280;57470;50.034;15.256;2023-05-31T07:36:06;100058.06;;;20.39;53.74
70103;BME280;57470;50.034;15.256;2023-05-31T07:38:32;100059.16;;;20.46;54.06
70103;BME280;57470;50.034;15.256;2023-05-31T07:40:57;100055.97;;;20.51;54.62
70103;BME280;57470;50.034;15.256;2023-05-31T07:43:23;100052.75;;;20.65;53.43
70103;BME280;57470;50.034;15.256;2023-05-31T07:45:49;100046.50;;;20.47;52.93
70103;BME280;57470;50.034;15.256;2023-05-31T07:48:16;100049.97;;;20.57;56.42
70103;BME280;57470;50.034;15.256;2023-05-31T07:50:42;100056.81;;;20.06;56.83
70103;BME280;57470;50.034;15.256;2023-05-31T07:53:07;100060.72;;;20.21;53.16
70103;BME280;57470;50.034;15.256;2023-05-31T07:55:33;100050.81;;;20.40;52.87
70103;BME280;57470;50.034;15.256;2023-05-31T07:57:58;100051.00;;;21.00;53.00
70103;BME280;57470;50.034;15.256;2023-05-31T08:00:24;100043.50;;;21.11;50.25
70103;BME280;57470;50.034;15.256;2023-05-31T08:02:49;100048.94;;;21.37;49.43
70103;BME280;57470;50.034;15.256;2023-05-31T08:05:15;100042.56;;;21.46;47.56
70103;BME280;57470;50.034;15.256;2023-05-31T08:07:40;100039.84;;;21.46;48.01
70103;BME280;57470;50.034;15.256;2023-05-31T08:10:06;100035.22;;;21.73;49.03
70103;BME280;57470;50.034;15.256;2023-05-31T08:12:31;100040.31;;;21.42;51.53
70103;BME280;57470;50.034;15.256;2023-05-31T08:14:57;100034.75;;;21.17;51.14
70103;BME280;57470;50.034;15.256;2023-05-31T08:17:22;100038.41;;;21.34;50.97
70103;BME280;57470;50.034;15.256;2023-05-31T08:19:48;100031.91;;;21.53;49.87
70103;BME280;57470;50.034;15.256;2023-05-31T08:22:13;100024.28;;;21.82;48.70
70103;BME280;57470;50.034;15.256;2023-05-31T08:24:39;100032.34;;;21.40;51.06
70103;BME280;57470;50.034;15.256;2023-05-31T08:27:04;100030.28;;;21.08;51.92
70103;BME280;57470;50.034;15.256;2023-05-31T08:29:30;100026.22;;;20.69;50.70
70103;BME280;57470;50.034;15.256;2023-05-31T08:31:56;100036.28;;;21.46;51.14
70103;BME280;57470;50.034;15.256;2023-05-31T08:34:21;100025.34;;;21.29;50.21
70103;BME280;57470;50.034;15.256;2023-05-31T08:36:46;100021.75;;;21.21;50.86
70103;BME280;57470;50.034;15.256;2023-05-31T08:39:13;100029.84;;;21.81;49.50
70103;BME280;57470;50.034;15.256;2023-05-31T08:44:11;100030.97;;;21.36;47.83
70103;BME280;57470;50.034;15.256;2023-05-31T08:46:40;100029.53;;;21.50;48.26
70103;BME280;57470;50.034;15.256;2023-05-31T08:49:09;100027.34;;;21.53;48.23
70103;BME280;57470;50.034;15.256;2023-05-31T08:51:36;100024.28;;;21.82;47.93
70103;BME280;57470;50.034;15.256;2023-05-31T08:54:02;100025.75;;;21.77;48.00
70103;BME280;57470;50.034;15.256;2023-05-31T08:56:28;100026.47;;;21.87;48.22
70103;BME280;57470;50.034;15.256;2023-05-31T08:58:54;100023.44;;;21.90;46.47
70103;BME280;57470;50.034;15.256;2023-05-31T09:01:20;100016.09;;;22.16;47.00
70103;BME280;57470;50.034;15.256;2023-05-31T09:03:48;100015.41;;;22.06;49.04
70103;BME280;57470;50.034;15.256;2023-05-31T09:06:14;100015.44;;;22.38;47.36
70103;BME280;57470;50.034;15.256;2023-05-31T09:08:40;100016.13;;;22.40;46.32
70103;BME280;57470;50.034;15.256;2023-05-31T09:11:06;100020.16;;;22.28;46.33
70103;BME280;57470;50.034;15.256;2023-05-31T09:13:32;100009.03;;;22.39;45.77
70103;BME280;57470;50.034;15.256;2023-05-31T09:15:59;100000.56;;;22.51;46.49
70103;BME280;57470;50.034;15.256;2023-05-31T09:18:26;100002.94;;;22.70;45.72
70103;BME280;57470;50.034;15.256;2023-05-31T09:20:55;100006.50;;;22.54;46.33
70103;BME280;57470;50.034;15.256;2023-05-31T09:23:21;100005.66;;;22.45;47.47
70103;BME280;57470;50.034;15.256;2023-05-31T09:25:49;100010.72;;;22.73;46.14
70103;BME280;57470;50.034;15.256;2023-05-31T09:28:20;100011.56;;;22.41;46.13
70103;BME280;57470;50.034;15.256;2023-05-31T09:30:46;100000.16;;;22.13;46.65
70103;BME280;57470;50.034;15.256;2023-05-31T09:33:36;99997.84;;;22.42;46.92
70103;BME280;57470;50.034;15.256;2023-05-31T09:36:03;99993.78;;;22.46;45.80
70103;BME280;57470;50.034;15.256;2023-05-31T09:38:33;99990.75;;;22.90;46.52
70103;BME280;57470;50.034;15.256;2023-05-31T09:41:32;99984.31;;;22.83;45.52
70103;BME280;57470;50.034;15.256;2023-05-31T09:43:58;99977.69;;;22.86;47.24
70103;BME280;57470;50.034;15.256;2023-05-31T09:46:25;99969.56;;;22.77;46.96
70103;BME280;57470;50.034;15.256;2023-05-31T09:49:04;99974.31;;;22.83;47.39
70103;BME280;57470;50.034;15.256;2023-05-31T09:51:32;99973.69;;;23.29;46.84
70103;BME280;57470;50.034;15.256;2023-05-31T09:54:00;99970.31;;;23.27;46.52
70103;BME280;57470;50.034;15.256;2023-05-31T09:56:27;99959.56;;;22.86;46.81
70103;BME280;57470;50.034;15.256;2023-05-31T09:58:56;99969.34;;;23.11;47.32
70103;BME280;57470;50.034;15.256;2023-05-31T10:01:22;99963.75;;;23.13;46.27
70103;BME280;57470;50.034;15.256;2023-05-31T10:03:49;99962.84;;;23.29;45.99
70103;BME280;57470;50.034;15.256;2023-05-31T10:06:16;99957.19;;;22.99;47.83
70103;BME280;57470;50.034;15.256;2023-05-31T10:08:43;99964.69;;;23.36;48.10
70103;BME280;57470;50.034;15.256;2023-05-31T10:11:09;99963.44;;;23.55;45.85
70103;BME280;57470;50.034;15.256;2023-05-31T10:13:40;99955.44;;;23.70;46.27
70103;BME280;57470;50.034;15.256;2023-05-31T10:16:08;99951.53;;;23.64;47.56
70103;BME280;57470;50.034;15.256;2023-05-31T10:18:37;99955.94;;;23.65;45.55
70103;BME280;57470;50.034;15.256;2023-05-31T10:21:24;99948.50;;;23.59;46.47
70103;BME280;57470;50.034;15.256;2023-05-31T10:24:01;99953.78;;;23.61;45.86
70103;BME280;57470;50.034;15.256;2023-05-31T10:29:27;99945.63;;;23.44;44.86
70103;BME280;57470;50.034;15.256;2023-05-31T10:31:55;99955.22;;;23.71;46.78
70103;BME280;57470;50.034;15.256;2023-05-31T10:34:25;99943.03;;;23.20;46.46
70103;BME280;57470;50.034;15.256;2023-05-31T10:36:52;99941.06;;;23.45;45.72
70103;BME280;57470;50.034;15.256;2023-05-31T10:39:32;99935.69;;;23.29;44.75
70103;BME280;57470;50.034;15.256;2023-05-31T10:42:27;99930.44;;;23.74;46.77
70103;BME280;57470;50.034;15.256;2023-05-31T10:45:04;99930.78;;;23.71;44.99
70103;BME280;57470;50.034;15.256;2023-05-31T10:50:30;99917.78;;;24.12;45.22
70103;BME280;57470;50.034;15.256;2023-05-31T10:53:11;99914.38;;;24.41;44.71
70103;BME280;57470;50.034;15.256;2023-05-31T10:55:44;99917.22;;;24.17;45.88
70103;BME280;57470;50.034;15.256;2023-05-31T10:58:24;99917.44;;;24.15;45.93
70103;BME280;57470;50.034;15.256;2023-05-31T11:00:55;99908.00;;;25.01;44.26
70103;BME280;57470;50.034;15.256;2023-05-31T11:03:24;99916.41;;;24.77;45.71
70103;BME280;57470;50.034;15.256;2023-05-31T11:05:57;99911.81;;;24.77;43.07
70103;BME280;57470;50.034;15.256;2023-05-31T11:08:23;99914.50;;;24.62;43.90
70103;BME280;57470;50.034;15.256;2023-05-31T11:10:49;99908.78;;;24.72;44.00
70103;BME280;57470;50.034;15.256;2023-05-31T11:13:14;99911.72;;;24.85;43.23
70103;BME280;57470;50.034;15.256;2023-05-31T11:15:41;99907.16;;;25.15;42.99
70103;BME280;57470;50.034;15.256;2023-05-31T11:18:08;99899.66;;;25.17;42.80
70103;BME280;57470;50.034;15.256;2023-05-31T11:20:34;99894.66;;;25.06;44.79
70103;BME280;57470;50.034;15.256;2023-05-31T11:25:42;99884.97;;;25.48;44.43
70103;BME280;57470;50.034;15.256;2023-05-31T11:28:07;99880.28;;;25.41;42.82
70103;BME280;57470;50.034;15.256;2023-05-31T11:30:37;99887.19;;;25.73;42.64
70103;BME280;57470;50.034;15.256;2023-05-31T11:33:03;99893.66;;;25.22;43.04
70103;BME280;57470;50.034;15.256;2023-05-31T11:35:31;99881.13;;;25.42;42.11
70103;BME280;57470;50.034;15.256;2023-05-31T11:38:01;99879.81;;;25.23;43.68
70103;BME280;57470;50.034;15.256;2023-05-31T11:40:27;99874.59;;;25.72;43.33
70103;BME280;57470;50.034;15.256;2023-05-31T11:42:55;99882.81;;;25.43;42.79
70103;BME280;57470;50.034;15.256;2023-05-31T11:45:27;99879.50;;;25.98;42.87
70103;BME280;57470;50.034;15.256;2023-05-31T11:48:11;99878.88;;;26.24;42.10
70103;BME280;57470;50.034;15.256;2023-05-31T11:50:42;99886.84;;;25.47;41.37
70103;BME280;57470;50.034;15.256;2023-05-31T11:53:10;99881.63;;;25.16;41.61
70103;BME280;57470;50.034;15.256;2023-05-31T11:55:35;99872.44;;;25.17;42.56
70103;BME280;57470;50.034;15.256;2023-05-31T11:58:04;99876.31;;;25.73;43.55
70103;BME280;57470;50.034;15.256;2023-05-31T12:00:31;99860.91;;;25.87;42.37
70103;BME280;57470;50.034;15.256;2023-05-31T12:02:57;99866.59;;;25.35;40.53
70103;BME280;57470;50.034;15.256;2023-05-31T12:05:23;99870.75;;;25.31;40.69
70103;BME280;57470;50.034;15.256;2023-05-31T12:07:52;99861.19;;;25.92;40.80
70103;BME280;57470;50.034;15.256;2023-05-31T12:10:19;99861.22;;;25.41;41.48
70103;BME280;57470;50.034;15.256;2023-05-31T12:12:46;99864.25;;;25.17;41.41
70103;BME280;57470;50.034;15.256;2023-05-31T12:15:12;99854.81;;;25.64;41.85
70103;BME280;57470;50.034;15.256;2023-05-31T12:17:37;99862.78;;;25.51;40.87
70103;BME280;57470;50.034;15.256;2023-05-31T12:20:04;99850.94;;;25.73;41.37
70103;BME280;57470;50.034;15.256;2023-05-31T12:22:33;99845.69;;;25.57;40.56
70103;BME280;57470;50.034;15.256;2023-05-31T12:24:59;99838.59;;;25.77;41.39
70103;BME280;57470;50.034;15.256;2023-05-31T12:27:27;99842.91;;;26.29;41.71
70103;BME280;57470;50.034;15.256;2023-05-31T12:29:57;99841.72;;;26.38;41.10
70103;BME280;57470;50.034;15.256;2023-05-31T12:32:23;99835.09;;;25.83;40.64
70103;BME280;57470;50.034;15.256;2023-05-31T12:35:07;99834.31;;;25.89;41.54
70103;BME280;57470;50.034;15.256;2023-05-31T12:37:34;99842.91;;;26.57;39.83
70103;BME280;57470;50.034;15.256;2023-05-31T12:40:10;99839.13;;;26.30;39.89
70103;BME280;57470;50.034;15.256;2023-05-31T12:42:37;99829.16;;;26.22;39.39
70103;BME280;57470;50.034;15.256;2023-05-31T12:45:03;99827.50;;;26.00;40.51
70103;BME280;57470;50.034;15.256;2023-05-31T12:47:29;99821.00;;;26.84;38.48
70103;BME280;57470;50.034;15.256;2023-05-31T12:50:00;99822.38;;;26.67;40.38
70103;BME280;57470;50.034;15.256;2023-05-31T12:52:26;99827.06;;;27.08;41.38
70103;BME280;57470;50.034;15.256;2023-05-31T12:54:51;99824.19;;;27.29;39.93
70103;BME280;57470;50.034;15.256;2023-05-31T12:57:17;99824.94;;;26.41;39.56
70103;BME280;57470;50.034;15.256;2023-05-31T12:59:42;99824.88;;;26.34;39.40
70103;BME280;57470;50.034;15.256;2023-05-31T13:02:07;99825.56;;;26.99;39.46
70103;BME280;57470;50.034;15.256;2023-05-31T13:04:33;99822.22;;;26.75;39.96
70103;BME280;57470;50.034;15.256;2023-05-31T13:06:58;99807.69;;;26.96;39.76